Impacts METAR Board
IDs:

KMSP - Minneapolis-St Paul, MN, US

Updated at: 2100 UTC 15 Jun 2019
Potential Impact None Slight Moderate High
Time 15/09Z 15/10Z 15/11Z 15/12Z 15/13Z 15/14Z 15/15Z 15/16Z 15/17Z 15/18Z 15/19Z 15/20Z 15/21Z
Temp68 68 67 65 64 65 65 68 69 70 72 74 73
Dewpt61 62 63 62 61 62 61 60 60 59 60 59 58
Altim29.66 29.65 29.67 29.69 29.69 29.72 29.71 29.73 29.74 29.75 29.74 29.73 29.74
VIS10 9 7 10 7 8 10 10 10 10 10 10 10
CIG-- 100 120 9 6 7 10 17 17 21 26 28 33
CoverFEWBKNBKNOVCOVCOVCOVCOVCOVCOVCBKNBKNOVC
FltCatVFRVFRVFRIFRIFRIFRMVFRMVFRMVFRMVFRMVFRMVFRVFR
WX--RA-RA-RA-----RA------------
WDir1900040608060808090709090
WSpd5 0 0 10 11 11 11 10 11 12 13 15 15
WGst-- -- -- -- -- 16 20 21 19 21 -- 22 --
Raw hourly METARs
KMSP 150853Z 19005KT 10SM FEW075 20/16 A2966 RMK AO2 SLP039 T02000161 53007
KMSP 150953Z 00000KT 9SM RA FEW055 BKN100 20/17 A2965 RMK AO2 RAB48 SLP034 P0000 T02000167
KMSP 151053Z 00000KT 7SM -RA FEW090 BKN120 19/17 A2967 RMK AO2 SLP044 P0002 T01940172
KMSP 151202Z 04010KT 10SM -RA BKN009 OVC013 18/17 A2969 RMK AO2 P0000 T01830167
KMSP 151253Z 06011KT 7SM OVC006 18/16 A2969 RMK AO2 RAE18 SLP051 P0000 T01780161
KMSP 151353Z 08011G16KT 8SM OVC007 18/17 A2972 RMK AO2 SLP058 T01830167
KMSP 151453Z 06011G20KT 10SM -RA OVC010 18/16 A2971 RMK AO2 RAB22 SLP059 P0000 60000 T01830161 50007
KMSP 151604Z 08010G21KT 10SM OVC017 20/16 A2973 RMK AO2 T02000156
KMSP 151653Z 08011G19KT 10SM OVC017 21/16 A2974 RMK AO2 LTG DSNT SW SLP068 T02060156
KMSP 151753Z 09012G21KT 10SM OVC021 21/15 A2975 RMK AO2 LTG DSNT SE AND SW SLP069 60000 T02110150 10211 20178 51011
KMSP 151853Z 07013KT 10SM BKN026 22/16 A2974 RMK AO2 SLP066 T02220156
KMSP 151953Z 09015G22KT 10SM BKN028 BKN120 23/15 A2973 RMK AO2 SLP064 T02330150
KMSP 152053Z 09015KT 10SM BKN033 OVC130 23/14 A2974 RMK AO2 SLP066 T02280144 55004



Page loaded:  21:09 UTC  |   02:09 PM Pacific  |   03:09 PM Mountain  |   04:09 PM Central  |   05:09 PM Eastern

 

ADVISORIES

FORECASTS

FORECASTS

OBSERVATIONS

USER TOOLS

ABOUT US